sensor_id;sensor_type;location;lat;lon;timestamp;temperature;humidity
51007;DHT22;37034;47.886;-3.904;2022-12-20T00:00:16;15.20;99.90
51007;DHT22;37034;47.886;-3.904;2022-12-20T00:02:42;15.30;99.90
51007;DHT22;37034;47.886;-3.904;2022-12-20T00:05:08;15.30;99.90
51007;DHT22;37034;47.886;-3.904;2022-12-20T00:07:33;15.30;99.90
51007;DHT22;37034;47.886;-3.904;2022-12-20T00:09:59;15.40;99.90
51007;DHT22;37034;47.886;-3.904;2022-12-20T00:12:25;15.40;99.90
51007;DHT22;37034;47.886;-3.904;2022-12-20T00:14:51;15.30;99.90
51007;DHT22;37034;47.886;-3.904;2022-12-20T00:17:16;15.30;99.90
51007;DHT22;37034;47.886;-3.904;2022-12-20T00:19:45;15.30;99.90
51007;DHT22;37034;47.886;-3.904;2022-12-20T00:22:10;15.30;99.90
51007;DHT22;37034;47.886;-3.904;2022-12-20T00:24:36;15.30;99.90
51007;DHT22;37034;47.886;-3.904;2022-12-20T00:27:02;15.30;99.90
51007;DHT22;37034;47.886;-3.904;2022-12-20T00:29:28;15.20;99.90
51007;DHT22;37034;47.886;-3.904;2022-12-20T00:31:53;15.20;99.90
51007;DHT22;37034;47.886;-3.904;2022-12-20T00:34:19;15.30;99.90
51007;DHT22;37034;47.886;-3.904;2022-12-20T00:36:45;15.40;99.90
51007;DHT22;37034;47.886;-3.904;2022-12-20T00:39:11;15.40;99.90
51007;DHT22;37034;47.886;-3.904;2022-12-20T00:41:36;15.40;99.90
51007;DHT22;37034;47.886;-3.904;2022-12-20T00:44:03;15.40;99.90
51007;DHT22;37034;47.886;-3.904;2022-12-20T00:46:29;15.30;99.90
51007;DHT22;37034;47.886;-3.904;2022-12-20T00:48:56;15.30;99.90
51007;DHT22;37034;47.886;-3.904;2022-12-20T00:51:27;15.30;99.90
51007;DHT22;37034;47.886;-3.904;2022-12-20T00:53:53;15.30;99.90
51007;DHT22;37034;47.886;-3.904;2022-12-20T00:56:19;15.30;99.90
51007;DHT22;37034;47.886;-3.904;2022-12-20T00:58:45;15.30;99.90
51007;DHT22;37034;47.886;-3.904;2022-12-20T01:01:26;15.30;99.90
51007;DHT22;37034;47.886;-3.904;2022-12-20T01:03:53;15.30;99.90
51007;DHT22;37034;47.886;-3.904;2022-12-20T01:06:19;15.30;99.90
51007;DHT22;37034;47.886;-3.904;2022-12-20T01:08:45;15.30;99.90
51007;DHT22;37034;47.886;-3.904;2022-12-20T01:11:16;15.30;99.90
51007;DHT22;37034;47.886;-3.904;2022-12-20T01:13:44;15.30;99.90
51007;DHT22;37034;47.886;-3.904;2022-12-20T01:16:31;15.30;99.90
51007;DHT22;37034;47.886;-3.904;2022-12-20T01:18:57;15.30;99.90
51007;DHT22;37034;47.886;-3.904;2022-12-20T01:21:24;15.30;99.90
51007;DHT22;37034;47.886;-3.904;2022-12-20T01:23:51;15.30;99.90
51007;DHT22;37034;47.886;-3.904;2022-12-20T01:26:19;15.30;99.90
51007;DHT22;37034;47.886;-3.904;2022-12-20T01:28:47;15.30;99.90
51007;DHT22;37034;47.886;-3.904;2022-12-20T01:31:17;15.30;99.90
51007;DHT22;37034;47.886;-3.904;2022-12-20T01:33:43;15.40;99.90
51007;DHT22;37034;47.886;-3.904;2022-12-20T01:36:15;15.40;99.90
51007;DHT22;37034;47.886;-3.904;2022-12-20T01:38:41;15.30;99.90
51007;DHT22;37034;47.886;-3.904;2022-12-20T01:41:08;15.20;99.90
51007;DHT22;37034;47.886;-3.904;2022-12-20T01:43:50;15.20;99.90
51007;DHT22;37034;47.886;-3.904;2022-12-20T01:46:17;15.30;99.90
51007;DHT22;37034;47.886;-3.904;2022-12-20T01:48:45;15.30;99.90
51007;DHT22;37034;47.886;-3.904;2022-12-20T01:51:12;15.40;99.90
51007;DHT22;37034;47.886;-3.904;2022-12-20T01:53:39;15.30;99.90
51007;DHT22;37034;47.886;-3.904;2022-12-20T01:56:05;15.40;99.90
51007;DHT22;37034;47.886;-3.904;2022-12-20T01:58:33;15.40;99.90
51007;DHT22;37034;47.886;-3.904;2022-12-20T02:01:00;15.30;99.90
51007;DHT22;37034;47.886;-3.904;2022-12-20T02:03:26;15.30;99.90
51007;DHT22;37034;47.886;-3.904;2022-12-20T02:05:55;15.20;99.90
51007;DHT22;37034;47.886;-3.904;2022-12-20T02:08:20;15.30;99.90
51007;DHT22;37034;47.886;-3.904;2022-12-20T02:16:21;15.10;99.90
51007;DHT22;37034;47.886;-3.904;2022-12-20T02:18:57;15.10;99.90
51007;DHT22;37034;47.886;-3.904;2022-12-20T02:32:11;15.10;99.90
51007;DHT22;37034;47.886;-3.904;2022-12-20T02:34:39;15.10;99.90
51007;DHT22;37034;47.886;-3.904;2022-12-20T02:37:05;15.10;99.90
51007;DHT22;37034;47.886;-3.904;2022-12-20T02:39:32;15.10;99.90
51007;DHT22;37034;47.886;-3.904;2022-12-20T02:42:04;15.10;99.90
51007;DHT22;37034;47.886;-3.904;2022-12-20T02:44:32;15.20;99.90
51007;DHT22;37034;47.886;-3.904;2022-12-20T02:47:35;15.20;99.90
51007;DHT22;37034;47.886;-3.904;2022-12-20T02:50:03;15.20;99.90
51007;DHT22;37034;47.886;-3.904;2022-12-20T02:52:31;15.20;99.90
51007;DHT22;37034;47.886;-3.904;2022-12-20T02:54:57;15.20;99.90
51007;DHT22;37034;47.886;-3.904;2022-12-20T03:02:32;15.20;99.90
51007;DHT22;37034;47.886;-3.904;2022-12-20T03:05:20;15.20;99.90
51007;DHT22;37034;47.886;-3.904;2022-12-20T03:07:46;15.30;99.90
51007;DHT22;37034;47.886;-3.904;2022-12-20T03:10:12;15.20;99.90
51007;DHT22;37034;47.886;-3.904;2022-12-20T03:12:38;15.20;99.90
51007;DHT22;37034;47.886;-3.904;2022-12-20T03:15:04;15.20;99.90
51007;DHT22;37034;47.886;-3.904;2022-12-20T03:17:30;15.20;99.90
51007;DHT22;37034;47.886;-3.904;2022-12-20T03:19:55;15.30;99.90
51007;DHT22;37034;47.886;-3.904;2022-12-20T03:22:21;15.30;99.90
51007;DHT22;37034;47.886;-3.904;2022-12-20T03:24:48;15.30;99.90
51007;DHT22;37034;47.886;-3.904;2022-12-20T03:27:14;15.30;99.90
51007;DHT22;37034;47.886;-3.904;2022-12-20T03:29:39;15.30;99.90
51007;DHT22;37034;47.886;-3.904;2022-12-20T03:32:05;15.20;99.90
51007;DHT22;37034;47.886;-3.904;2022-12-20T03:34:31;15.20;99.90
51007;DHT22;37034;47.886;-3.904;2022-12-20T03:36:57;15.30;99.90
51007;DHT22;37034;47.886;-3.904;2022-12-20T03:39:22;15.30;99.90
51007;DHT22;37034;47.886;-3.904;2022-12-20T03:41:48;15.30;99.90
51007;DHT22;37034;47.886;-3.904;2022-12-20T03:44:14;15.30;99.90
51007;DHT22;37034;47.886;-3.904;2022-12-20T03:46:39;15.30;99.90
51007;DHT22;37034;47.886;-3.904;2022-12-20T03:49:05;15.40;99.90
51007;DHT22;37034;47.886;-3.904;2022-12-20T03:51:31;15.40;99.90
51007;DHT22;37034;47.886;-3.904;2022-12-20T03:53:56;15.40;99.90
51007;DHT22;37034;47.886;-3.904;2022-12-20T03:56:22;15.50;99.90
51007;DHT22;37034;47.886;-3.904;2022-12-20T03:58:48;15.50;99.90
51007;DHT22;37034;47.886;-3.904;2022-12-20T04:01:25;15.50;99.90
51007;DHT22;37034;47.886;-3.904;2022-12-20T04:03:51;15.50;99.90
51007;DHT22;37034;47.886;-3.904;2022-12-20T04:06:17;15.50;99.90
51007;DHT22;37034;47.886;-3.904;2022-12-20T04:08:43;15.50;99.90
51007;DHT22;37034;47.886;-3.904;2022-12-20T04:11:09;15.60;99.90
51007;DHT22;37034;47.886;-3.904;2022-12-20T04:13:45;15.60;99.90
51007;DHT22;37034;47.886;-3.904;2022-12-20T04:16:12;15.60;99.90
51007;DHT22;37034;47.886;-3.904;2022-12-20T04:18:38;15.60;99.90
51007;DHT22;37034;47.886;-3.904;2022-12-20T04:21:05;15.60;99.90
51007;DHT22;37034;47.886;-3.904;2022-12-20T04:23:33;15.60;99.90
51007;DHT22;37034;47.886;-3.904;2022-12-20T04:25:59;15.50;99.90
51007;DHT22;37034;47.886;-3.904;2022-12-20T04:28:25;15.50;99.90
51007;DHT22;37034;47.886;-3.904;2022-12-20T04:30:50;15.50;99.90
51007;DHT22;37034;47.886;-3.904;2022-12-20T04:33:16;15.50;99.90
51007;DHT22;37034;47.886;-3.904;2022-12-20T04:35:41;15.50;99.90
51007;DHT22;37034;47.886;-3.904;2022-12-20T04:38:07;15.50;99.90
51007;DHT22;37034;47.886;-3.904;2022-12-20T04:40:33;15.50;99.90
51007;DHT22;37034;47.886;-3.904;2022-12-20T04:42:58;15.50;99.90
51007;DHT22;37034;47.886;-3.904;2022-12-20T04:45:24;15.50;99.90
51007;DHT22;37034;47.886;-3.904;2022-12-20T04:47:50;15.50;99.90
51007;DHT22;37034;47.886;-3.904;2022-12-20T04:50:15;15.50;99.90
51007;DHT22;37034;47.886;-3.904;2022-12-20T04:52:42;15.50;99.90
51007;DHT22;37034;47.886;-3.904;2022-12-20T04:55:26;15.50;99.90
51007;DHT22;37034;47.886;-3.904;2022-12-20T04:57:52;15.50;99.90
51007;DHT22;37034;47.886;-3.904;2022-12-20T05:00:18;15.50;99.90
51007;DHT22;37034;47.886;-3.904;2022-12-20T05:02:44;15.50;99.90
51007;DHT22;37034;47.886;-3.904;2022-12-20T05:05:09;15.50;99.90
51007;DHT22;37034;47.886;-3.904;2022-12-20T05:07:35;15.50;99.90
51007;DHT22;37034;47.886;-3.904;2022-12-20T05:10:01;15.50;99.90
51007;DHT22;37034;47.886;-3.904;2022-12-20T05:12:26;15.50;99.90
51007;DHT22;37034;47.886;-3.904;2022-12-20T05:14:52;15.50;99.90
51007;DHT22;37034;47.886;-3.904;2022-12-20T05:17:17;15.50;99.90
51007;DHT22;37034;47.886;-3.904;2022-12-20T05:19:43;15.50;99.90
51007;DHT22;37034;47.886;-3.904;2022-12-20T05:22:09;15.50;99.90
51007;DHT22;37034;47.886;-3.904;2022-12-20T05:24:54;15.50;99.90
51007;DHT22;37034;47.886;-3.904;2022-12-20T05:27:38;15.50;99.90
51007;DHT22;37034;47.886;-3.904;2022-12-20T05:30:04;15.50;99.90
51007;DHT22;37034;47.886;-3.904;2022-12-20T05:32:30;15.50;99.90
51007;DHT22;37034;47.886;-3.904;2022-12-20T05:34:55;15.50;99.90
51007;DHT22;37034;47.886;-3.904;2022-12-20T05:37:21;15.50;99.90
51007;DHT22;37034;47.886;-3.904;2022-12-20T05:39:47;15.50;99.90
51007;DHT22;37034;47.886;-3.904;2022-12-20T05:42:13;15.50;99.90
51007;DHT22;37034;47.886;-3.904;2022-12-20T05:44:39;15.50;99.90
51007;DHT22;37034;47.886;-3.904;2022-12-20T05:47:04;15.40;99.90
51007;DHT22;37034;47.886;-3.904;2022-12-20T05:49:30;15.40;99.90
51007;DHT22;37034;47.886;-3.904;2022-12-20T05:51:55;15.40;99.90
51007;DHT22;37034;47.886;-3.904;2022-12-20T05:54:21;15.40;99.90
51007;DHT22;37034;47.886;-3.904;2022-12-20T05:56:47;15.40;99.90
51007;DHT22;37034;47.886;-3.904;2022-12-20T05:59:12;15.40;99.90
51007;DHT22;37034;47.886;-3.904;2022-12-20T06:01:38;15.40;99.90
51007;DHT22;37034;47.886;-3.904;2022-12-20T06:04:04;15.30;99.90
51007;DHT22;37034;47.886;-3.904;2022-12-20T06:06:30;15.30;99.90
51007;DHT22;37034;47.886;-3.904;2022-12-20T06:08:55;15.30;99.90
51007;DHT22;37034;47.886;-3.904;2022-12-20T06:11:21;15.30;99.90
51007;DHT22;37034;47.886;-3.904;2022-12-20T06:13:47;15.20;99.90
51007;DHT22;37034;47.886;-3.904;2022-12-20T06:16:12;15.20;99.90
51007;DHT22;37034;47.886;-3.904;2022-12-20T06:18:38;15.10;99.90
51007;DHT22;37034;47.886;-3.904;2022-12-20T06:21:04;15.10;99.90
51007;DHT22;37034;47.886;-3.904;2022-12-20T06:23:29;15.10;99.90
51007;DHT22;37034;47.886;-3.904;2022-12-20T06:25:55;15.00;99.90
51007;DHT22;37034;47.886;-3.904;2022-12-20T06:28:22;15.00;99.90
51007;DHT22;37034;47.886;-3.904;2022-12-20T06:30:52;14.90;99.90
51007;DHT22;37034;47.886;-3.904;2022-12-20T06:33:18;14.90;99.90
51007;DHT22;37034;47.886;-3.904;2022-12-20T06:35:44;14.90;99.90
51007;DHT22;37034;47.886;-3.904;2022-12-20T06:38:09;14.80;99.90
51007;DHT22;37034;47.886;-3.904;2022-12-20T06:40:35;14.80;99.90
51007;DHT22;37034;47.886;-3.904;2022-12-20T06:43:00;14.80;99.90
51007;DHT22;37034;47.886;-3.904;2022-12-20T06:45:26;14.70;99.80
51007;DHT22;37034;47.886;-3.904;2022-12-20T06:47:52;14.70;99.80
51007;DHT22;37034;47.886;-3.904;2022-12-20T06:50:17;14.60;99.90
51007;DHT22;37034;47.886;-3.904;2022-12-20T06:52:43;14.50;99.80
51007;DHT22;37034;47.886;-3.904;2022-12-20T06:55:09;14.50;99.90
51007;DHT22;37034;47.886;-3.904;2022-12-20T06:57:34;14.50;99.90
51007;DHT22;37034;47.886;-3.904;2022-12-20T07:00:00;14.50;99.90
51007;DHT22;37034;47.886;-3.904;2022-12-20T07:02:26;14.50;99.90
51007;DHT22;37034;47.886;-3.904;2022-12-20T07:04:51;14.40;99.80
51007;DHT22;37034;47.886;-3.904;2022-12-20T07:07:18;14.40;99.80
51007;DHT22;37034;47.886;-3.904;2022-12-20T07:09:44;14.40;99.90
51007;DHT22;37034;47.886;-3.904;2022-12-20T07:12:10;14.30;99.70
51007;DHT22;37034;47.886;-3.904;2022-12-20T07:14:35;14.30;99.70
51007;DHT22;37034;47.886;-3.904;2022-12-20T07:17:01;14.20;99.60
51007;DHT22;37034;47.886;-3.904;2022-12-20T07:19:27;14.20;99.60
51007;DHT22;37034;47.886;-3.904;2022-12-20T07:21:53;14.10;99.60
51007;DHT22;37034;47.886;-3.904;2022-12-20T07:24:19;14.10;99.50
51007;DHT22;37034;47.886;-3.904;2022-12-20T07:26:44;14.10;99.70
51007;DHT22;37034;47.886;-3.904;2022-12-20T07:29:12;14.00;99.80
51007;DHT22;37034;47.886;-3.904;2022-12-20T07:31:38;14.00;99.80
51007;DHT22;37034;47.886;-3.904;2022-12-20T07:34:03;14.00;99.90
51007;DHT22;37034;47.886;-3.904;2022-12-20T07:36:29;14.00;99.90
51007;DHT22;37034;47.886;-3.904;2022-12-20T07:38:55;14.00;99.80
51007;DHT22;37034;47.886;-3.904;2022-12-20T07:41:21;14.00;99.70
51007;DHT22;37034;47.886;-3.904;2022-12-20T07:43:46;14.00;99.40
51007;DHT22;37034;47.886;-3.904;2022-12-20T07:46:13;13.90;99.30
51007;DHT22;37034;47.886;-3.904;2022-12-20T07:48:39;13.80;99.30
51007;DHT22;37034;47.886;-3.904;2022-12-20T07:51:10;13.80;99.20
51007;DHT22;37034;47.886;-3.904;2022-12-20T07:53:39;13.70;99.20
51007;DHT22;37034;47.886;-3.904;2022-12-20T07:56:06;13.70;99.20
51007;DHT22;37034;47.886;-3.904;2022-12-20T07:58:34;13.60;99.40
51007;DHT22;37034;47.886;-3.904;2022-12-20T08:01:00;13.60;99.50
51007;DHT22;37034;47.886;-3.904;2022-12-20T08:03:31;13.50;99.60
51007;DHT22;37034;47.886;-3.904;2022-12-20T08:05:59;13.60;99.70
51007;DHT22;37034;47.886;-3.904;2022-12-20T08:08:30;13.50;99.60
51007;DHT22;37034;47.886;-3.904;2022-12-20T08:10:56;13.60;99.60
51007;DHT22;37034;47.886;-3.904;2022-12-20T08:13:22;13.60;99.40
51007;DHT22;37034;47.886;-3.904;2022-12-20T08:15:48;13.50;99.20
51007;DHT22;37034;47.886;-3.904;2022-12-20T08:18:13;13.50;99.00
51007;DHT22;37034;47.886;-3.904;2022-12-20T08:20:40;13.40;99.10
51007;DHT22;37034;47.886;-3.904;2022-12-20T08:23:06;13.40;99.10
51007;DHT22;37034;47.886;-3.904;2022-12-20T08:25:33;13.30;99.10
51007;DHT22;37034;47.886;-3.904;2022-12-20T08:27:59;13.30;99.20
51007;DHT22;37034;47.886;-3.904;2022-12-20T08:30:27;13.30;99.40
51007;DHT22;37034;47.886;-3.904;2022-12-20T08:32:54;13.30;99.50
51007;DHT22;37034;47.886;-3.904;2022-12-20T08:35:19;13.30;99.30
51007;DHT22;37034;47.886;-3.904;2022-12-20T08:37:45;13.40;99.30
51007;DHT22;37034;47.886;-3.904;2022-12-20T08:40:11;13.30;99.30
51007;DHT22;37034;47.886;-3.904;2022-12-20T08:42:37;13.30;99.50
51007;DHT22;37034;47.886;-3.904;2022-12-20T08:45:04;13.30;99.50
51007;DHT22;37034;47.886;-3.904;2022-12-20T08:47:29;13.30;99.20
51007;DHT22;37034;47.886;-3.904;2022-12-20T08:49:55;13.30;99.10
51007;DHT22;37034;47.886;-3.904;2022-12-20T08:52:21;13.20;98.90
51007;DHT22;37034;47.886;-3.904;2022-12-20T08:54:46;13.20;98.80
51007;DHT22;37034;47.886;-3.904;2022-12-20T08:57:12;13.20;98.70
51007;DHT22;37034;47.886;-3.904;2022-12-20T08:59:38;13.10;98.70
51007;DHT22;37034;47.886;-3.904;2022-12-20T09:02:03;13.00;98.80
51007;DHT22;37034;47.886;-3.904;2022-12-20T09:04:29;13.00;99.00
51007;DHT22;37034;47.886;-3.904;2022-12-20T09:06:55;13.00;99.10
51007;DHT22;37034;47.886;-3.904;2022-12-20T09:09:20;13.00;99.10
51007;DHT22;37034;47.886;-3.904;2022-12-20T09:11:46;13.00;99.10
51007;DHT22;37034;47.886;-3.904;2022-12-20T09:14:12;13.00;99.10
51007;DHT22;37034;47.886;-3.904;2022-12-20T09:16:38;13.00;99.20
51007;DHT22;37034;47.886;-3.904;2022-12-20T09:19:05;13.00;99.20
51007;DHT22;37034;47.886;-3.904;2022-12-20T09:21:31;13.00;99.10
51007;DHT22;37034;47.886;-3.904;2022-12-20T09:23:57;13.00;99.00
51007;DHT22;37034;47.886;-3.904;2022-12-20T09:26:23;13.00;98.80
51007;DHT22;37034;47.886;-3.904;2022-12-20T09:28:49;13.00;98.80
51007;DHT22;37034;47.886;-3.904;2022-12-20T09:31:23;13.00;98.90
51007;DHT22;37034;47.886;-3.904;2022-12-20T09:33:52;13.00;98.90
51007;DHT22;37034;47.886;-3.904;2022-12-20T09:36:19;12.90;99.00
51007;DHT22;37034;47.886;-3.904;2022-12-20T09:38:46;12.90;99.20
51007;DHT22;37034;47.886;-3.904;2022-12-20T09:41:25;13.00;99.40
51007;DHT22;37034;47.886;-3.904;2022-12-20T09:43:53;13.00;99.50
51007;DHT22;37034;47.886;-3.904;2022-12-20T09:46:18;13.10;99.10
51007;DHT22;37034;47.886;-3.904;2022-12-20T09:48:45;13.00;98.90
51007;DHT22;37034;47.886;-3.904;2022-12-20T10:01:32;13.20;99.50
51007;DHT22;37034;47.886;-3.904;2022-12-20T10:04:03;13.30;99.60
51007;DHT22;37034;47.886;-3.904;2022-12-20T10:15:21;13.70;99.90
51007;DHT22;37034;47.886;-3.904;2022-12-20T10:18:15;13.80;99.90
51007;DHT22;37034;47.886;-3.904;2022-12-20T10:23:57;14.00;99.70
51007;DHT22;37034;47.886;-3.904;2022-12-20T10:26:25;14.10;99.80
51007;DHT22;37034;47.886;-3.904;2022-12-20T10:28:50;14.20;99.70
51007;DHT22;37034;47.886;-3.904;2022-12-20T10:31:17;14.30;99.60
51007;DHT22;37034;47.886;-3.904;2022-12-20T10:33:44;14.30;99.50
51007;DHT22;37034;47.886;-3.904;2022-12-20T10:38:50;14.50;99.50
51007;DHT22;37034;47.886;-3.904;2022-12-20T10:41:19;14.60;99.60
51007;DHT22;37034;47.886;-3.904;2022-12-20T10:43:57;14.60;99.50
51007;DHT22;37034;47.886;-3.904;2022-12-20T10:46:37;14.70;99.40
51007;DHT22;37034;47.886;-3.904;2022-12-20T10:49:30;14.70;99.40
51007;DHT22;37034;47.886;-3.904;2022-12-20T10:54:40;14.70;99.20
51007;DHT22;37034;47.886;-3.904;2022-12-20T10:57:33;14.70;99.20
51007;DHT22;37034;47.886;-3.904;2022-12-20T11:00:00;14.70;99.20
51007;DHT22;37034;47.886;-3.904;2022-12-20T11:02:32;14.70;99.00
51007;DHT22;37034;47.886;-3.904;2022-12-20T11:10:22;14.60;99.10
51007;DHT22;37034;47.886;-3.904;2022-12-20T11:13:01;14.60;99.20
51007;DHT22;37034;47.886;-3.904;2022-12-20T11:15:31;14.60;99.30
51007;DHT22;37034;47.886;-3.904;2022-12-20T11:23:43;14.80;99.50
51007;DHT22;37034;47.886;-3.904;2022-12-20T11:34:08;15.00;99.30
51007;DHT22;37034;47.886;-3.904;2022-12-20T11:39:37;15.00;99.30
51007;DHT22;37034;47.886;-3.904;2022-12-20T11:42:36;15.00;99.40
51007;DHT22;37034;47.886;-3.904;2022-12-20T11:53:18;15.00;99.30
51007;DHT22;37034;47.886;-3.904;2022-12-20T11:55:47;15.00;99.20
51007;DHT22;37034;47.886;-3.904;2022-12-20T11:58:19;15.10;99.20
51007;DHT22;37034;47.886;-3.904;2022-12-20T12:01:08;15.10;99.10
51007;DHT22;37034;47.886;-3.904;2022-12-20T12:03:40;15.10;99.10
51007;DHT22;37034;47.886;-3.904;2022-12-20T12:06:22;15.20;99.20
51007;DHT22;37034;47.886;-3.904;2022-12-20T12:08:51;15.20;99.40
51007;DHT22;37034;47.886;-3.904;2022-12-20T12:11:21;15.30;99.20
51007;DHT22;37034;47.886;-3.904;2022-12-20T12:13:49;15.40;99.20
51007;DHT22;37034;47.886;-3.904;2022-12-20T12:16:32;15.50;99.20
51007;DHT22;37034;47.886;-3.904;2022-12-20T12:19:00;15.50;99.00
51007;DHT22;37034;47.886;-3.904;2022-12-20T12:21:27;15.50;98.90
51007;DHT22;37034;47.886;-3.904;2022-12-20T12:26:49;15.50;98.30
51007;DHT22;37034;47.886;-3.904;2022-12-20T12:29:17;15.40;97.70
51007;DHT22;37034;47.886;-3.904;2022-12-20T12:32:10;15.30;98.10
51007;DHT22;37034;47.886;-3.904;2022-12-20T12:40:35;15.30;98.70
51007;DHT22;37034;47.886;-3.904;2022-12-20T12:43:36;15.30;98.30
51007;DHT22;37034;47.886;-3.904;2022-12-20T12:46:12;15.30;98.20
51007;DHT22;37034;47.886;-3.904;2022-12-20T12:48:45;15.30;98.30
51007;DHT22;37034;47.886;-3.904;2022-12-20T12:51:14;15.30;98.40
51007;DHT22;37034;47.886;-3.904;2022-12-20T12:53:51;15.30;98.20
51007;DHT22;37034;47.886;-3.904;2022-12-20T13:05:43;15.10;97.20
51007;DHT22;37034;47.886;-3.904;2022-12-20T13:08:16;15.10;96.90
51007;DHT22;37034;47.886;-3.904;2022-12-20T13:13:21;14.90;97.50
51007;DHT22;37034;47.886;-3.904;2022-12-20T13:15:49;15.00;97.60
51007;DHT22;37034;47.886;-3.904;2022-12-20T13:18:23;15.00;97.50
51007;DHT22;37034;47.886;-3.904;2022-12-20T13:21:16;15.00;97.50
51007;DHT22;37034;47.886;-3.904;2022-12-20T13:23:42;15.00;97.10
51007;DHT22;37034;47.886;-3.904;2022-12-20T13:26:49;15.10;97.60
51007;DHT22;37034;47.886;-3.904;2022-12-20T13:29:34;15.10;97.30
51007;DHT22;37034;47.886;-3.904;2022-12-20T13:32:00;15.20;97.50
51007;DHT22;37034;47.886;-3.904;2022-12-20T13:34:51;15.20;97.50
51007;DHT22;37034;47.886;-3.904;2022-12-20T13:37:49;15.20;97.00
51007;DHT22;37034;47.886;-3.904;2022-12-20T13:40:38;15.20;97.10
51007;DHT22;37034;47.886;-3.904;2022-12-20T13:43:29;15.20;96.60
51007;DHT22;37034;47.886;-3.904;2022-12-20T13:48:45;15.10;96.70
51007;DHT22;37034;47.886;-3.904;2022-12-20T13:51:19;15.10;97.20
51007;DHT22;37034;47.886;-3.904;2022-12-20T13:54:01;15.10;96.50
51007;DHT22;37034;47.886;-3.904;2022-12-20T13:56:37;15.10;96.90
51007;DHT22;37034;47.886;-3.904;2022-12-20T13:59:26;15.20;97.10
51007;DHT22;37034;47.886;-3.904;2022-12-20T14:01:55;15.20;96.70
51007;DHT22;37034;47.886;-3.904;2022-12-20T14:04:26;15.30;97.10
51007;DHT22;37034;47.886;-3.904;2022-12-20T14:07:03;15.30;96.90
51007;DHT22;37034;47.886;-3.904;2022-12-20T14:09:35;15.40;96.90
51007;DHT22;37034;47.886;-3.904;2022-12-20T14:12:06;15.40;96.70
51007;DHT22;37034;47.886;-3.904;2022-12-20T14:14:42;15.40;96.80
51007;DHT22;37034;47.886;-3.904;2022-12-20T14:20:14;15.50;95.80
51007;DHT22;37034;47.886;-3.904;2022-12-20T14:22:55;15.40;96.40
51007;DHT22;37034;47.886;-3.904;2022-12-20T14:25:38;15.40;96.80
51007;DHT22;37034;47.886;-3.904;2022-12-20T14:28:16;15.40;96.70
51007;DHT22;37034;47.886;-3.904;2022-12-20T14:30:43;15.40;96.90
51007;DHT22;37034;47.886;-3.904;2022-12-20T14:33:35;15.40;96.70
51007;DHT22;37034;47.886;-3.904;2022-12-20T14:38:43;15.40;96.60
51007;DHT22;37034;47.886;-3.904;2022-12-20T14:41:32;15.50;96.70
51007;DHT22;37034;47.886;-3.904;2022-12-20T14:44:15;15.40;96.20
51007;DHT22;37034;47.886;-3.904;2022-12-20T14:47:14;15.40;96.20
51007;DHT22;37034;47.886;-3.904;2022-12-20T14:49:47;15.40;96.40
51007;DHT22;37034;47.886;-3.904;2022-12-20T14:52:16;15.40;96.60
51007;DHT22;37034;47.886;-3.904;2022-12-20T14:57:37;15.40;96.70
51007;DHT22;37034;47.886;-3.904;2022-12-20T15:00:18;15.40;96.80
51007;DHT22;37034;47.886;-3.904;2022-12-20T15:08:20;15.40;96.50
51007;DHT22;37034;47.886;-3.904;2022-12-20T15:13:34;15.40;96.60
51007;DHT22;37034;47.886;-3.904;2022-12-20T15:16:02;15.30;96.50
51007;DHT22;37034;47.886;-3.904;2022-12-20T15:18:29;15.30;96.60
51007;DHT22;37034;47.886;-3.904;2022-12-20T15:21:14;15.30;96.50
51007;DHT22;37034;47.886;-3.904;2022-12-20T15:23:52;15.20;96.60
51007;DHT22;37034;47.886;-3.904;2022-12-20T15:26:20;15.20;96.70
51007;DHT22;37034;47.886;-3.904;2022-12-20T15:28:46;15.20;96.60
51007;DHT22;37034;47.886;-3.904;2022-12-20T15:31:14;15.20;96.60
51007;DHT22;37034;47.886;-3.904;2022-12-20T15:33:42;15.20;96.50
51007;DHT22;37034;47.886;-3.904;2022-12-20T15:36:21;15.20;96.40
51007;DHT22;37034;47.886;-3.904;2022-12-20T15:38:49;15.10;96.50
51007;DHT22;37034;47.886;-3.904;2022-12-20T15:41:24;15.10;96.50
51007;DHT22;37034;47.886;-3.904;2022-12-20T15:44:15;15.00;96.40
51007;DHT22;37034;47.886;-3.904;2022-12-20T15:46:42;15.00;96.40
51007;DHT22;37034;47.886;-3.904;2022-12-20T15:49:18;15.00;96.40
51007;DHT22;37034;47.886;-3.904;2022-12-20T15:51:47;15.00;96.60
51007;DHT22;37034;47.886;-3.904;2022-12-20T15:54:31;15.00;96.50
51007;DHT22;37034;47.886;-3.904;2022-12-20T15:56:59;15.00;96.30
51007;DHT22;37034;47.886;-3.904;2022-12-20T15:59:27;15.00;96.40
51007;DHT22;37034;47.886;-3.904;2022-12-20T16:01:53;15.00;96.50
51007;DHT22;37034;47.886;-3.904;2022-12-20T16:04:32;14.90;96.50
51007;DHT22;37034;47.886;-3.904;2022-12-20T16:06:58;14.90;96.50
51007;DHT22;37034;47.886;-3.904;2022-12-20T16:09:38;14.90;96.30
51007;DHT22;37034;47.886;-3.904;2022-12-20T16:12:17;14.90;96.30
51007;DHT22;37034;47.886;-3.904;2022-12-20T16:14:48;14.80;96.30
51007;DHT22;37034;47.886;-3.904;2022-12-20T16:17:19;14.80;96.30
51007;DHT22;37034;47.886;-3.904;2022-12-20T16:19:47;14.70;96.40
51007;DHT22;37034;47.886;-3.904;2022-12-20T16:22:19;14.70;96.60
51007;DHT22;37034;47.886;-3.904;2022-12-20T16:24:47;14.80;96.60
51007;DHT22;37034;47.886;-3.904;2022-12-20T16:27:13;14.70;96.60
51007;DHT22;37034;47.886;-3.904;2022-12-20T16:29:45;14.70;96.40
51007;DHT22;37034;47.886;-3.904;2022-12-20T16:32:17;14.60;96.40
51007;DHT22;37034;47.886;-3.904;2022-12-20T16:34:44;14.70;96.60
51007;DHT22;37034;47.886;-3.904;2022-12-20T16:37:15;14.70;96.50
51007;DHT22;37034;47.886;-3.904;2022-12-20T16:39:46;14.70;96.40
51007;DHT22;37034;47.886;-3.904;2022-12-20T16:42:21;14.60;96.30
51007;DHT22;37034;47.886;-3.904;2022-12-20T16:44:52;14.50;96.30
51007;DHT22;37034;47.886;-3.904;2022-12-20T16:47:25;14.50;96.40
51007;DHT22;37034;47.886;-3.904;2022-12-20T16:50:18;14.40;96.30
51007;DHT22;37034;47.886;-3.904;2022-12-20T16:53:11;14.40;96.30
51007;DHT22;37034;47.886;-3.904;2022-12-20T16:55:44;14.40;96.30
51007;DHT22;37034;47.886;-3.904;2022-12-20T16:58:37;14.30;96.20
51007;DHT22;37034;47.886;-3.904;2022-12-20T17:01:07;14.20;96.10
51007;DHT22;37034;47.886;-3.904;2022-12-20T17:04:37;14.20;96.20
51007;DHT22;37034;47.886;-3.904;2022-12-20T17:07:14;14.00;95.80
51007;DHT22;37034;47.886;-3.904;2022-12-20T17:10:07;13.90;95.70
51007;DHT22;37034;47.886;-3.904;2022-12-20T17:12:56;13.80;95.70
51007;DHT22;37034;47.886;-3.904;2022-12-20T17:15:36;13.70;95.70
51007;DHT22;37034;47.886;-3.904;2022-12-20T17:18:06;13.60;95.70
51007;DHT22;37034;47.886;-3.904;2022-12-20T17:20:38;13.40;95.60
51007;DHT22;37034;47.886;-3.904;2022-12-20T17:23:08;13.40;95.70
51007;DHT22;37034;47.886;-3.904;2022-12-20T17:25:54;13.30;95.90
51007;DHT22;37034;47.886;-3.904;2022-12-20T17:28:21;13.20;96.00
51007;DHT22;37034;47.886;-3.904;2022-12-20T17:30:47;13.20;96.00
51007;DHT22;37034;47.886;-3.904;2022-12-20T17:33:16;13.20;96.10